Time;durP1;ratioP1;P1;durP2;ratioP2;P2;SDS_P1;SDS_P2;PMS_P1;PMS_P2;Temp;Humidity;BMP_temperature;BMP_pressure;BME280_temperature;BME280_humidity;BME280_pressure;Samples;Min_cycle;Max_cycle;Signal;HPM_P1;HPM_P2
2022/08/17 00:01:09;;;;;;;16.17;7.97;;;27.60;99.90;;;;;;5050904;28;20033;-70
2022/08/17 00:03:39;;;;;;;22.38;8.63;;;27.50;99.90;;;;;;5050418;28;20124;-70
2022/08/17 00:06:10;;;;;;;17.73;8.00;;;27.40;99.90;;;;;;5050053;28;20017;-70
2022/08/17 00:08:59;;;;;;;16.83;7.30;;;27.30;99.90;;;;;;5050315;28;20067;-70
2022/08/17 00:11:35;;;;;;;18.38;7.00;;;27.20;99.90;;;;;;5050140;28;20485;-71
2022/08/17 00:14:03;;;;;;;;;;;27.10;99.90;;;;;;5050729;28;20412;-70
2022/08/17 00:16:36;;;;;;;15.90;6.80;;;27.20;99.90;;;;;;5050062;28;19958;-70
2022/08/17 00:19:06;;;;;;;15.80;7.65;;;27.10;99.90;;;;;;5050297;28;20029;-70
2022/08/17 00:21:33;;;;;;;19.73;7.28;;;27.10;99.90;;;;;;5049927;28;20029;-71
2022/08/17 00:24:00;;;;;;;21.20;6.97;;;27.10;99.90;;;;;;5049998;28;20033;-71
2022/08/17 00:26:27;;;;;;;18.42;6.20;;;27.10;99.90;;;;;;5050023;28;20053;-70
2022/08/17 00:28:54;;;;;;;19.63;6.72;;;27.10;99.90;;;;;;5051866;28;20044;-69
2022/08/17 00:31:20;;;;;;;;;;;27.00;99.90;;;;;;5053997;28;20021;-70
2022/08/17 00:33:46;;;;;;;12.55;6.88;;;27.00;99.90;;;;;;5052183;28;20010;-70
2022/08/17 00:36:14;;;;;;;17.40;6.30;;;27.00;99.90;;;;;;5053692;28;20111;-71
2022/08/17 00:38:41;;;;;;;17.15;6.43;;;26.90;99.90;;;;;;5053611;28;20069;-71
2022/08/17 00:41:12;;;;;;;16.52;6.20;;;26.90;99.90;;;;;;5053764;28;20059;-71
2022/08/17 00:43:40;;;;;;;19.83;7.30;;;26.90;99.90;;;;;;5051987;28;20477;-71
2022/08/17 00:46:16;;;;;;;16.67;6.68;;;26.90;99.90;;;;;;5053389;28;20201;-71
2022/08/17 00:48:43;;;;;;;22.20;7.20;;;26.90;99.90;;;;;;5053618;28;20021;-71
2022/08/17 00:51:22;;;;;;;22.30;6.82;;;26.90;99.90;;;;;;5053297;28;20068;-71
2022/08/17 00:54:07;;;;;;;19.17;6.88;;;26.90;99.90;;;;;;5053641;28;20175;-71
2022/08/17 00:56:39;;;;;;;16.77;6.13;;;26.90;99.90;;;;;;5053452;28;20065;-71
2022/08/17 00:59:07;;;;;;;16.48;5.65;;;26.90;99.90;;;;;;5053271;28;20021;-71
2022/08/17 01:01:34;;;;;;;16.38;5.75;;;27.10;99.90;;;;;;5053424;28;20429;-71
2022/08/17 01:04:00;;;;;;;;;;;27.20;99.90;;;;;;5053720;28;20025;-71
2022/08/17 01:06:28;;;;;;;14.50;5.80;;;27.20;99.90;;;;;;5053044;28;19958;-71
2022/08/17 01:08:56;;;;;;;19.75;6.20;;;27.20;99.90;;;;;;5052856;28;20040;-71
2022/08/17 01:11:22;;;;;;;12.90;5.20;;;27.30;99.90;;;;;;5053011;28;20116;-71
2022/08/17 01:13:49;;;;;;;17.80;6.13;;;27.30;99.90;;;;;;5052980;28;20021;-71
2022/08/17 01:16:15;;;;;;;21.55;6.18;;;27.30;99.90;;;;;;5052640;28;20120;-71
2022/08/17 01:18:42;;;;;;;15.07;5.85;;;27.30;99.90;;;;;;5052925;28;20032;-71
2022/08/17 01:21:31;;;;;;;14.35;6.10;;;27.30;99.90;;;;;;5052870;28;20025;-71
2022/08/17 01:23:58;;;;;;;19.95;6.10;;;27.30;99.90;;;;;;5049670;28;20372;-71
2022/08/17 01:26:24;;;;;;;12.35;5.88;;;27.30;99.90;;;;;;5052554;28;20079;-71
2022/08/17 01:28:50;;;;;;;;;;;27.30;99.90;;;;;;5053295;28;20033;-71
2022/08/17 01:31:16;;;;;;;;;;;27.30;99.90;;;;;;5052860;28;19909;-71
2022/08/17 01:33:42;;;;;;;;;;;27.30;99.90;;;;;;5052834;28;19932;-72
2022/08/17 01:36:08;;;;;;;18.45;5.43;;;27.30;99.90;;;;;;5052269;28;19912;-71
2022/08/17 01:38:35;;;;;;;;;;;27.30;99.90;;;;;;5052735;28;20458;-71
2022/08/17 01:41:06;;;;;;;23.33;6.07;;;27.30;99.90;;;;;;5052284;28;19905;-71
2022/08/17 01:43:47;;;;;;;17.70;5.50;;;27.30;99.90;;;;;;5052428;28;20025;-71
2022/08/17 01:46:21;;;;;;;13.55;4.70;;;27.40;99.90;;;;;;5052509;28;20405;-71
2022/08/17 01:48:47;;;;;;;19.75;4.75;;;27.40;99.90;;;;;;5052472;28;20075;-71
2022/08/17 01:51:14;;;;;;;17.98;4.63;;;27.50;99.90;;;;;;5050465;28;20094;-71
2022/08/17 01:53:46;;;;;;;14.20;4.70;;;27.50;99.90;;;;;;5052379;28;20025;-70
2022/08/17 01:56:16;;;;;;;18.63;4.15;;;27.60;99.90;;;;;;5052221;28;20211;-70
2022/08/17 01:58:42;;;;;;;17.13;4.53;;;27.60;99.90;;;;;;5050446;28;20454;-70
2022/08/17 02:01:09;;;;;;;14.60;5.00;;;27.70;99.90;;;;;;5050363;28;20056;-70
2022/08/17 02:03:37;;;;;;;18.77;5.65;;;27.60;99.90;;;;;;5052297;28;20035;-70
2022/08/17 02:06:05;;;;;;;16.65;5.30;;;27.60;99.90;;;;;;5051777;28;20025;-71
2022/08/17 02:08:34;;;;;;;14.55;4.80;;;27.60;99.90;;;;;;5051600;28;20071;-70
2022/08/17 02:11:03;;;;;;;18.50;5.10;;;27.60;99.90;;;;;;5051699;28;20104;-70
2022/08/17 02:13:32;;;;;;;19.15;5.45;;;27.50;99.90;;;;;;5052087;28;20035;-71
2022/08/17 02:15:59;;;;;;;17.25;5.03;;;27.40;99.90;;;;;;5050372;28;20109;-70
2022/08/17 02:18:26;;;;;;;14.77;4.85;;;27.40;99.90;;;;;;5051748;28;20113;-70
2022/08/17 02:20:53;;;;;;;12.15;4.90;;;27.50;99.90;;;;;;5050105;28;20031;-70
2022/08/17 02:23:22;;;;;;;15.82;5.03;;;27.40;99.90;;;;;;5052069;28;20043;-71
2022/08/17 02:25:48;;;;;;;13.40;4.63;;;27.40;99.90;;;;;;5051723;28;20033;-70
2022/08/17 02:28:15;;;;;;;11.77;4.40;;;27.40;99.90;;;;;;5051669;28;20122;-71
2022/08/17 02:30:43;;;;;;;15.95;5.00;;;27.40;99.90;;;;;;5051596;28;20025;-70
2022/08/17 02:33:10;;;;;;;16.35;4.93;;;27.40;99.90;;;;;;5051566;28;20405;-71
2022/08/17 02:35:37;;;;;;;22.95;4.68;;;27.40;99.90;;;;;;5051437;28;20021;-70
2022/08/17 02:38:05;;;;;;;15.20;4.70;;;27.50;99.90;;;;;;5051791;28;20107;-70
2022/08/17 02:40:33;;;;;;;16.80;4.20;;;27.50;99.90;;;;;;5051607;28;20052;-70
2022/08/17 02:42:59;;;;;;;15.38;4.22;;;27.50;99.90;;;;;;5051309;28;20033;-71
2022/08/17 02:45:25;;;;;;;;;;;27.50;99.90;;;;;;5051691;28;20021;-70
2022/08/17 02:47:52;;;;;;;16.90;4.55;;;27.50;99.90;;;;;;5051325;28;20398;-70
2022/08/17 02:50:21;;;;;;;13.15;4.43;;;27.50;99.90;;;;;;5050909;28;20024;-70
2022/08/17 02:52:48;;;;;;;17.42;4.53;;;27.50;99.90;;;;;;5050811;28;20037;-71
2022/08/17 02:55:24;;;;;;;22.55;4.93;;;27.50;99.90;;;;;;5051228;28;20021;-70
2022/08/17 02:57:50;;;;;;;18.23;4.68;;;27.40;99.90;;;;;;5051098;28;20029;-70
2022/08/17 03:00:34;;;;;;;15.20;4.45;;;27.30;99.90;;;;;;5051288;28;20017;-71
2022/08/17 03:03:01;;;;;;;15.80;4.70;;;27.30;99.90;;;;;;5051412;28;20033;-70
2022/08/17 03:05:30;;;;;;;16.85;4.22;;;27.30;99.90;;;;;;5049674;28;20025;-70
2022/08/17 03:07:56;;;;;;;18.48;5.00;;;27.30;99.90;;;;;;5051147;28;20389;-70
2022/08/17 03:10:23;;;;;;;23.38;4.25;;;27.30;99.90;;;;;;5050948;28;20017;-71
2022/08/17 03:12:50;;;;;;;17.35;3.92;;;27.30;99.90;;;;;;5051258;28;20028;-70
2022/08/17 03:15:28;;;;;;;23.35;4.55;;;27.30;99.90;;;;;;5051056;28;20105;-70
2022/08/17 03:17:55;;;;;;;21.95;4.55;;;27.40;99.90;;;;;;5051036;28;20036;-70
2022/08/17 03:20:21;;;;;;;19.85;4.75;;;27.50;99.90;;;;;;5051776;28;20028;-70
2022/08/17 03:22:50;;;;;;;;;;;27.50;99.90;;;;;;5052765;28;20036;-70
2022/08/17 03:25:25;;;;;;;11.15;3.95;;;27.40;99.90;;;;;;5052181;28;19912;-70
2022/08/17 03:27:51;;;;;;;13.32;3.90;;;27.40;99.90;;;;;;5051983;28;20049;-70
2022/08/17 03:30:20;;;;;;;12.07;3.63;;;27.50;99.90;;;;;;5051944;28;20039;-70
2022/08/17 03:32:48;;;;;;;14.02;4.22;;;27.50;99.90;;;;;;5052066;28;20036;-70
2022/08/17 03:35:18;;;;;;;13.23;4.13;;;27.50;99.90;;;;;;5052334;28;20074;-70
2022/08/17 03:37:44;;;;;;;16.73;4.00;;;27.50;99.90;;;;;;5052037;28;20029;-70
2022/08/17 03:40:10;;;;;;;19.88;4.53;;;27.50;99.90;;;;;;5052270;28;20025;-70
2022/08/17 03:42:37;;;;;;;;;;;27.50;99.90;;;;;;5052434;28;20029;-70
2022/08/17 03:45:05;;;;;;;17.33;4.18;;;27.50;99.90;;;;;;5052305;28;20243;-70
2022/08/17 03:58:37;;;;;;;20.02;4.35;;;27.30;99.90;;;;;;5051955;28;20114;-70
2022/08/17 04:01:05;;;;;;;14.30;3.95;;;27.30;99.90;;;;;;5051974;28;20021;-70
2022/08/17 04:03:31;;;;;;;14.18;3.80;;;27.30;99.90;;;;;;5054683;28;20147;-71
2022/08/17 04:05:59;;;;;;;15.18;4.03;;;27.30;99.90;;;;;;5055601;28;20017;-70
2022/08/17 04:08:25;;;;;;;18.45;4.00;;;27.30;99.90;;;;;;5056055;28;20092;-70
2022/08/17 04:10:51;;;;;;;17.65;4.10;;;27.40;99.90;;;;;;5055920;28;20029;-70
2022/08/17 04:13:17;;;;;;;18.98;4.32;;;27.40;99.90;;;;;;5053962;28;20029;-70
2022/08/17 04:15:43;;;;;;;17.65;3.97;;;27.30;99.90;;;;;;5055771;28;20027;-70
2022/08/17 04:18:09;;;;;;;20.23;4.57;;;27.20;99.90;;;;;;5055708;28;20067;-70
2022/08/17 04:20:35;;;;;;;22.13;4.40;;;27.20;99.90;;;;;;5055637;28;20021;-70
2022/08/17 04:23:10;;;;;;;23.83;4.43;;;27.10;99.90;;;;;;5055558;28;20060;-70
2022/08/17 04:25:38;;;;;;;20.83;4.10;;;27.20;99.90;;;;;;5054331;28;20025;-70
2022/08/17 04:28:05;;;;;;;18.85;4.75;;;27.10;99.90;;;;;;5055288;28;20079;-70
2022/08/17 04:30:33;;;;;;;22.08;4.18;;;27.20;99.90;;;;;;5055402;28;20025;-70
2022/08/17 04:33:04;;;;;;;23.33;4.40;;;27.10;99.90;;;;;;5055435;28;20032;-71
2022/08/17 04:35:33;;;;;;;23.38;4.50;;;27.20;99.90;;;;;;5055327;28;20029;-70
2022/08/17 04:38:02;;;;;;;20.02;4.35;;;27.20;99.90;;;;;;5055694;28;20451;-70
2022/08/17 04:43:18;;;;;;;21.13;4.03;;;27.30;99.90;;;;;;5055802;28;20040;-71
2022/08/17 04:45:51;;;;;;;16.25;4.10;;;27.40;99.90;;;;;;5056267;28;20047;-70
2022/08/17 04:48:17;;;;;;;21.10;3.97;;;27.40;99.90;;;;;;5056115;28;20028;-70
2022/08/17 04:50:44;;;;;;;;;;;27.50;99.90;;;;;;5055889;28;20079;-70
2022/08/17 04:53:11;;;;;;;19.67;3.88;;;27.60;99.90;;;;;;5055544;28;20304;-70
2022/08/17 04:55:38;;;;;;;20.50;4.65;;;27.70;99.90;;;;;;5055617;28;20033;-70
2022/08/17 04:58:04;;;;;;;19.90;4.10;;;27.70;99.90;;;;;;5055160;28;20188;-70
2022/08/17 05:00:30;;;;;;;21.42;4.22;;;27.80;99.90;;;;;;5055128;28;20458;-70
2022/08/17 05:02:56;;;;;;;21.00;4.10;;;27.80;99.90;;;;;;5054594;28;20507;-70
2022/08/17 05:05:26;;;;;;;15.73;4.20;;;27.90;99.90;;;;;;5055152;28;20467;-70
2022/08/17 05:07:54;;;;;;;25.08;3.92;;;28.00;99.90;;;;;;5055087;28;20025;-70
2022/08/17 05:10:22;;;;;;;25.60;3.67;;;28.00;99.90;;;;;;5055126;28;20033;-70
2022/08/17 05:12:57;;;;;;;18.77;3.67;;;28.20;99.90;;;;;;5055540;28;20116;-70
2022/08/17 05:15:24;;;;;;;21.45;3.80;;;28.40;99.90;;;;;;5054301;28;20100;-70
2022/08/17 05:17:50;;;;;;;19.70;4.18;;;28.50;99.90;;;;;;5055064;28;20025;-70
2022/08/17 05:20:16;;;;;;;18.65;3.80;;;28.80;99.90;;;;;;5055367;28;20021;-71
2022/08/17 05:22:53;;;;;;;22.48;3.80;;;29.20;99.90;;;;;;5055352;28;20021;-70
2022/08/17 05:25:21;;;;;;;20.42;4.13;;;29.70;99.90;;;;;;5055261;28;20033;-70
2022/08/17 05:27:47;;;;;;;23.80;4.03;;;30.20;99.90;;;;;;5054520;28;20457;-70
2022/08/17 05:30:14;;;;;;;23.50;4.20;;;30.70;99.90;;;;;;5055102;28;20029;-70
2022/08/17 05:32:58;;;;;;;18.65;4.03;;;31.10;99.90;;;;;;5054536;28;20087;-70
2022/08/17 05:35:27;;;;;;;23.25;5.78;;;31.60;99.90;;;;;;5054808;28;20029;-71
2022/08/17 05:37:53;;;;;;;28.25;6.15;;;31.90;99.90;;;;;;5054489;28;20021;-70
2022/08/17 05:40:20;;;;;;;;;;;32.40;99.90;;;;;;5054860;28;20021;-70
2022/08/17 05:42:47;;;;;;;25.23;5.72;;;33.10;99.90;;;;;;5054867;28;19951;-71
2022/08/17 05:45:15;;;;;;;23.20;5.45;;;33.60;99.90;;;;;;5054176;28;20032;-71
2022/08/17 05:47:43;;;;;;;35.63;6.45;;;33.90;99.90;;;;;;5054312;28;20029;-71
2022/08/17 05:50:34;;;;;;;41.30;6.63;;;34.20;99.90;;;;;;5054129;28;20043;-71
2022/08/17 05:53:26;;;;;;;31.42;5.57;;;34.50;99.90;;;;;;5051514;28;20144;-71
2022/08/17 05:56:16;;;;;;;24.95;5.68;;;35.10;99.20;;;;;;5054457;28;20135;-71
2022/08/17 05:58:48;;;;;;;38.35;5.70;;;35.90;98.40;;;;;;5054129;28;20040;-71
2022/08/17 06:01:26;;;;;;;29.92;6.20;;;36.50;97.00;;;;;;5054311;28;20029;-71
2022/08/17 06:04:22;;;;;;;25.08;5.28;;;37.00;96.30;;;;;;5054366;28;20473;-71
2022/08/17 06:07:04;;;;;;;25.67;5.53;;;37.40;95.20;;;;;;5054165;28;20021;-71
2022/08/17 06:09:54;;;;;;;40.50;6.47;;;37.90;93.90;;;;;;5054188;28;20025;-71
2022/08/17 06:12:44;;;;;;;34.75;5.82;;;37.90;93.60;;;;;;5054206;28;20037;-71
2022/08/17 06:15:30;;;;;;;20.52;4.60;;;38.50;93.10;;;;;;5053961;28;20052;-71
2022/08/17 06:18:07;;;;;;;27.00;5.55;;;39.00;91.90;;;;;;5054045;28;20029;-71
2022/08/17 06:20:53;;;;;;;22.67;4.88;;;39.40;90.90;;;;;;5053924;28;20102;-71
2022/08/17 06:23:40;;;;;;;20.13;4.25;;;39.80;89.80;;;;;;5052382;28;20200;-71
2022/08/17 06:26:19;;;;;;;31.33;4.32;;;40.10;88.60;;;;;;5053947;28;20024;-71
2022/08/17 06:29:15;;;;;;;35.53;4.97;;;39.80;88.60;;;;;;5054076;28;20129;-71
2022/08/17 06:31:41;;;;;;;26.75;4.68;;;39.30;89.90;;;;;;5053738;28;20032;-71
2022/08/17 06:34:10;;;;;;;25.67;4.28;;;38.90;89.50;;;;;;5053404;28;20021;-71
2022/08/17 06:37:07;;;;;;;33.40;4.53;;;39.00;89.80;;;;;;5053855;28;20087;-71
2022/08/17 06:40:03;;;;;;;29.23;5.22;;;39.90;88.70;;;;;;5053395;28;20024;-71
2022/08/17 06:42:46;;;;;;;25.38;4.35;;;39.60;88.60;;;;;;5050438;28;20041;-71
2022/08/17 06:45:22;;;;;;;29.83;4.50;;;39.00;89.30;;;;;;5053909;28;20013;-71
2022/08/17 06:47:59;;;;;;;37.50;5.10;;;39.20;89.60;;;;;;5053212;28;20032;-71
2022/08/17 06:50:48;;;;;;;34.55;4.85;;;38.90;89.60;;;;;;5053710;28;20039;-71
2022/08/17 06:53:39;;;;;;;25.88;4.20;;;38.80;90.00;;;;;;5053449;28;20099;-71
2022/08/17 06:56:23;;;;;;;24.65;4.38;;;39.20;89.40;;;;;;5053329;28;20477;-71
2022/08/17 06:58:49;;;;;;;32.78;4.38;;;39.80;86.70;;;;;;5053534;28;20044;-71
2022/08/17 07:01:22;;;;;;;23.70;3.22;;;40.40;86.30;;;;;;5053330;28;20032;-71
2022/08/17 07:04:12;;;;;;;25.80;3.92;;;40.80;85.00;;;;;;5053413;28;20031;-71
2022/08/17 07:06:53;;;;;;;21.13;4.50;;;41.70;83.50;;;;;;5053381;28;20473;-71
2022/08/17 07:09:23;;;;;;;28.65;3.90;;;42.20;81.90;;;;;;5053017;28;20462;-71
2022/08/17 07:11:57;;;;;;;22.83;4.00;;;42.50;80.10;;;;;;5052882;28;20037;-71
2022/08/17 07:14:50;;;;;;;36.05;4.22;;;42.40;80.50;;;;;;5052780;28;20055;-71
2022/08/17 07:17:18;;;;;;;24.67;4.10;;;42.60;80.50;;;;;;5053223;28;20017;-71
2022/08/17 07:19:47;;;;;;;22.60;3.83;;;42.50;81.50;;;;;;5051410;28;20450;-71
2022/08/17 07:22:29;;;;;;;23.67;4.10;;;42.00;83.70;;;;;;5052682;28;20017;-71
2022/08/17 07:24:58;;;;;;;18.20;3.78;;;41.80;83.90;;;;;;5053030;28;20028;-71
2022/08/17 07:27:29;;;;;;;19.55;4.05;;;41.80;85.40;;;;;;5052686;28;20589;-71
2022/08/17 07:30:25;;;;;;;68.72;6.32;;;41.80;85.60;;;;;;5053122;28;20377;-71
2022/08/17 07:32:58;;;;;;;20.35;3.75;;;41.80;85.70;;;;;;5051043;28;20029;-71
2022/08/17 07:35:40;;;;;;;24.08;4.40;;;41.70;84.90;;;;;;5052914;28;20026;-71
2022/08/17 07:38:27;;;;;;;23.73;4.50;;;41.50;84.70;;;;;;5057290;28;20055;-71
2022/08/17 07:40:56;;;;;;;22.90;4.15;;;41.30;85.20;;;;;;5059214;28;20025;-71
2022/08/17 07:43:38;;;;;;;23.90;4.50;;;40.90;85.60;;;;;;5059615;28;20112;-71
2022/08/17 07:49:02;;;;;;;;;;;40.30;85.10;;;;;;5059207;28;20082;-71
2022/08/17 07:51:37;;;;;;;18.73;4.07;;;40.00;86.20;;;;;;5057844;28;19908;-71
2022/08/17 07:54:26;;;;;;;20.73;3.88;;;39.80;86.30;;;;;;5056547;28;20362;-71
2022/08/17 07:56:57;;;;;;;24.77;4.32;;;39.90;87.10;;;;;;5057713;28;20070;-71
2022/08/17 07:59:35;;;;;;;26.55;4.70;;;40.00;87.40;;;;;;5057739;28;20029;-71
2022/08/17 08:02:21;;;;;;;26.55;4.65;;;39.90;88.30;;;;;;5058271;28;20025;-71
2022/08/17 08:05:04;;;;;;;31.90;4.60;;;39.60;87.80;;;;;;5057620;28;20041;-71
2022/08/17 08:07:53;;;;;;;29.65;5.35;;;39.70;88.50;;;;;;5057860;28;20116;-72
2022/08/17 08:10:31;;;;;;;27.35;5.13;;;39.80;88.40;;;;;;5057810;28;20088;-71
2022/08/17 08:13:04;;;;;;;23.75;4.88;;;39.80;88.40;;;;;;5057657;28;20516;-71
2022/08/17 08:15:52;;;;;;;25.98;5.82;;;39.90;87.70;;;;;;5056609;28;20033;-71
2022/08/17 08:18:35;;;;;;;27.33;6.78;;;39.30;89.40;;;;;;5058643;28;20021;-71
2022/08/17 08:21:15;;;;;;;29.42;5.70;;;39.30;90.30;;;;;;5059330;28;20025;-71
2022/08/17 08:24:00;;;;;;;20.85;4.45;;;39.30;90.80;;;;;;5059320;28;20029;-71
2022/08/17 08:26:32;;;;;;;;;;;39.20;91.70;;;;;;5059567;28;20484;-71
2022/08/17 08:29:22;;;;;;;19.13;4.15;;;39.10;93.00;;;;;;5059164;28;19913;-72
2022/08/17 08:32:07;;;;;;;18.77;4.57;;;38.90;94.10;;;;;;5058520;28;20041;-72
2022/08/17 08:34:43;;;;;;;17.95;4.50;;;38.80;94.60;;;;;;5059316;28;20223;-71
2022/08/17 08:37:48;;;;;;;17.17;4.50;;;38.80;94.80;;;;;;5058666;28;20101;-71
2022/08/17 08:40:48;;;;;;;18.17;4.80;;;38.90;95.10;;;;;;5057669;28;20049;-71
2022/08/17 08:43:21;;;;;;;20.77;4.22;;;38.80;95.20;;;;;;5059079;28;20028;-71
2022/08/17 08:45:55;;;;;;;16.90;3.85;;;38.90;95.30;;;;;;5059313;28;20067;-71
2022/08/17 08:48:46;;;;;;;19.13;4.25;;;38.80;95.00;;;;;;5057932;28;20059;-71
2022/08/17 08:51:55;;;;;;;16.48;3.70;;;38.30;95.40;;;;;;5055445;28;20108;-71
2022/08/17 08:54:46;;;;;;;20.30;3.53;;;38.40;95.40;;;;;;5052302;28;20355;-71
2022/08/17 08:57:32;;;;;;;23.50;4.72;;;38.50;95.50;;;;;;5055648;28;20027;-71
2022/08/17 09:00:18;;;;;;;24.08;3.55;;;38.30;95.70;;;;;;5055212;28;20078;-71
2022/08/17 09:03:01;;;;;;;17.73;3.72;;;37.60;96.30;;;;;;5055372;28;20025;-71
2022/08/17 09:05:52;;;;;;;21.02;4.32;;;37.30;96.70;;;;;;5054876;28;20039;-71
2022/08/17 09:08:54;;;;;;;25.52;4.85;;;37.10;97.30;;;;;;5054863;28;20036;-71
2022/08/17 09:11:53;;;;;;;25.40;4.22;;;37.30;97.40;;;;;;5053966;28;20382;-71
2022/08/17 09:14:32;;;;;;;21.42;4.40;;;37.50;97.30;;;;;;5054627;28;20047;-71
2022/08/17 09:17:11;;;;;;;25.55;4.82;;;37.70;97.00;;;;;;5054791;28;20330;-71
2022/08/17 09:20:04;;;;;;;23.02;4.20;;;37.70;96.20;;;;;;5055208;28;20043;-71
2022/08/17 09:22:43;;;;;;;17.08;3.75;;;37.60;96.30;;;;;;5054975;28;20096;-71
2022/08/17 09:25:33;;;;;;;25.35;4.10;;;37.70;96.40;;;;;;5054988;28;20114;-71
2022/08/17 09:28:18;;;;;;;16.08;3.78;;;37.90;96.70;;;;;;5054344;28;20051;-71
2022/08/17 09:30:48;;;;;;;16.08;3.58;;;37.70;97.40;;;;;;5054645;28;20052;-71
2022/08/17 09:33:28;;;;;;;21.10;3.92;;;37.50;97.40;;;;;;5054776;28;20033;-71
2022/08/17 09:36:04;;;;;;;22.70;4.13;;;37.50;97.70;;;;;;5054509;28;20017;-71
2022/08/17 09:38:40;;;;;;;17.77;3.65;;;37.60;97.70;;;;;;5054633;28;20116;-71
2022/08/17 09:41:15;;;;;;;17.73;3.92;;;37.50;98.40;;;;;;5054333;28;20139;-71
2022/08/17 09:43:53;;;;;;;19.42;3.72;;;37.50;98.70;;;;;;5054548;28;20049;-71
2022/08/17 09:46:38;;;;;;;18.70;3.63;;;37.60;98.80;;;;;;5054053;28;20032;-71
2022/08/17 09:49:25;;;;;;;17.65;3.60;;;37.60;98.80;;;;;;5054341;28;20476;-71
2022/08/17 09:51:57;;;;;;;31.65;5.68;;;37.70;98.30;;;;;;5054254;28;20029;-71
2022/08/17 09:54:30;;;;;;;20.15;3.65;;;37.60;98.60;;;;;;5054123;28;20441;-71
2022/08/17 09:56:58;;;;;;;26.63;4.07;;;37.60;98.70;;;;;;5054408;28;20025;-71
2022/08/17 09:59:46;;;;;;;17.23;3.75;;;37.30;98.90;;;;;;5054237;28;20377;-71
2022/08/17 10:02:42;;;;;;;17.30;3.70;;;37.20;99.10;;;;;;5053910;28;20025;-71
2022/08/17 10:05:20;;;;;;;16.40;4.00;;;37.30;98.80;;;;;;5053878;28;20031;-71
2022/08/17 10:07:46;;;;;;;17.90;3.63;;;37.30;98.90;;;;;;5053988;28;20021;-71
2022/08/17 10:10:23;;;;;;;18.88;3.83;;;37.30;98.80;;;;;;5053740;28;20027;-71
2022/08/17 10:12:53;;;;;;;17.58;3.00;;;37.30;98.50;;;;;;5051748;28;20060;-71
2022/08/17 10:15:53;;;;;;;16.92;3.67;;;36.90;98.70;;;;;;5053442;28;20060;-71
2022/08/17 10:18:22;;;;;;;21.17;3.42;;;36.90;98.90;;;;;;5044723;28;20033;-71
2022/08/17 10:26:34;;;;;;;19.63;3.67;;;36.80;98.70;;;;;;5053558;28;20032;-71
2022/08/17 10:29:15;;;;;;;17.13;3.47;;;36.80;98.10;;;;;;5053114;28;20093;-71
2022/08/17 10:32:13;;;;;;;19.30;3.50;;;36.90;98.60;;;;;;5053449;28;20052;-71
2022/08/17 10:34:42;;;;;;;17.40;3.75;;;37.00;98.10;;;;;;5031078;28;20029;-71
2022/08/17 10:37:58;;;;;;;18.65;3.53;;;37.00;98.10;;;;;;5031508;28;20025;-71
2022/08/17 10:40:45;;;;;;;19.00;3.35;;;37.00;97.40;;;;;;5015015;28;20036;-71
2022/08/17 10:43:11;;;;;;;15.15;3.22;;;36.80;97.70;;;;;;5030815;28;20036;-71
2022/08/17 10:46:06;;;;;;;16.00;3.42;;;36.50;97.80;;;;;;5030806;28;20037;-71
2022/08/17 10:48:35;;;;;;;21.30;3.38;;;36.40;98.10;;;;;;5029963;28;20049;-71
2022/08/17 10:51:36;;;;;;;13.90;3.47;;;36.20;98.90;;;;;;5030237;28;20569;-71
2022/08/17 10:54:05;;;;;;;13.15;3.55;;;35.80;99.30;;;;;;5029061;28;20041;-71
2022/08/17 10:56:47;;;;;;;21.48;3.97;;;35.50;99.30;;;;;;5012611;28;20120;-71
2022/08/17 10:59:34;;;;;;;17.52;3.80;;;35.70;99.40;;;;;;5029237;28;20085;-71
2022/08/17 11:02:08;;;;;;;19.30;4.22;;;35.70;98.80;;;;;;5029350;28;20518;-71
2022/08/17 11:04:51;;;;;;;22.85;3.55;;;36.00;98.20;;;;;;5013225;28;20033;-71
2022/08/17 11:07:54;;;;;;;17.15;3.72;;;36.30;97.40;;;;;;5029281;28;20028;-71
2022/08/17 11:10:42;;;;;;;21.10;3.70;;;36.40;95.90;;;;;;5033841;28;20037;-71
2022/08/17 11:13:16;;;;;;;17.05;3.60;;;36.50;95.80;;;;;;5050971;28;20121;-70
2022/08/17 11:16:14;;;;;;;22.52;4.32;;;36.60;95.50;;;;;;5051439;28;20028;-71
2022/08/17 11:19:07;;;;;;;24.35;4.20;;;36.80;95.90;;;;;;5031417;28;20103;-71
2022/08/17 11:22:02;;;;;;;15.73;3.25;;;36.80;95.40;;;;;;5031372;28;20061;-71
2022/08/17 11:24:35;;;;;;;25.30;4.25;;;36.90;94.60;;;;;;5031339;28;20390;-71
2022/08/17 11:27:25;;;;;;;23.67;3.63;;;36.90;94.50;;;;;;5030743;28;20049;-71
2022/08/17 11:30:00;;;;;;;23.98;3.65;;;36.90;95.30;;;;;;5030891;28;20029;-71
2022/08/17 11:32:40;;;;;;;13.88;3.38;;;37.00;95.20;;;;;;5030364;28;20041;-71
2022/08/17 11:35:10;;;;;;;18.33;3.67;;;37.00;93.90;;;;;;5031253;28;20429;-71
2022/08/17 11:37:49;;;;;;;24.20;3.35;;;37.10;93.40;;;;;;5030591;28;20026;-71
2022/08/17 11:40:35;;;;;;;24.13;3.88;;;37.20;92.20;;;;;;5030734;28;20052;-71
2022/08/17 11:43:07;;;;;;;20.17;3.55;;;37.20;90.90;;;;;;5031138;28;20095;-71
2022/08/17 11:45:50;;;;;;;22.50;3.17;;;37.30;91.80;;;;;;5030913;28;20064;-72
2022/08/17 11:51:51;;;;;;;17.02;3.47;;;37.40;92.90;;;;;;5030061;28;20079;-71
2022/08/17 11:54:17;;;;;;;17.27;3.42;;;37.60;92.70;;;;;;5041660;28;20107;-71
2022/08/17 11:56:48;;;;;;;19.45;3.03;;;37.70;92.70;;;;;;5051680;28;20022;-72
2022/08/17 11:59:32;;;;;;;21.05;3.53;;;37.80;92.00;;;;;;5052064;28;20208;-71
2022/08/17 12:02:03;;;;;;;20.17;3.22;;;37.90;90.00;;;;;;5052378;28;20521;-71
2022/08/17 12:04:33;;;;;;;28.30;3.95;;;37.70;90.50;;;;;;5052414;28;20021;-71
2022/08/17 12:07:16;;;;;;;22.15;4.15;;;37.60;90.30;;;;;;5052459;28;20465;-71
2022/08/17 12:09:48;;;;;;;27.23;3.58;;;37.50;88.50;;;;;;5052460;28;20109;-71
2022/08/17 12:12:21;;;;;;;23.92;3.70;;;37.70;87.40;;;;;;5052335;28;20037;-71
2022/08/17 12:14:57;;;;;;;21.30;3.75;;;37.90;87.20;;;;;;5052327;28;20025;-71
2022/08/17 12:17:27;;;;;;;26.83;3.42;;;38.00;86.30;;;;;;5052141;28;20032;-71
2022/08/17 12:19:53;;;;;;;26.10;3.92;;;37.90;84.00;;;;;;5052017;28;20025;-71
2022/08/17 12:22:32;;;;;;;20.83;3.85;;;38.00;83.50;;;;;;5051920;28;20020;-71
2022/08/17 12:25:17;;;;;;;21.40;3.75;;;38.10;83.50;;;;;;5055573;28;20032;-71
2022/08/17 12:27:48;;;;;;;24.90;3.78;;;38.20;83.40;;;;;;5056214;28;20045;-71
2022/08/17 12:30:18;;;;;;;26.42;3.05;;;38.40;82.60;;;;;;5056363;28;20032;-71
2022/08/17 12:32:47;;;;;;;21.10;3.53;;;38.30;83.10;;;;;;5055710;28;20071;-71
2022/08/17 12:35:28;;;;;;;27.88;4.43;;;38.50;83.60;;;;;;5055614;28;20028;-71
2022/08/17 12:37:58;;;;;;;23.73;3.63;;;38.60;81.50;;;;;;5054337;28;20024;-71
2022/08/17 12:40:28;;;;;;;23.33;3.35;;;38.40;82.50;;;;;;5055920;28;20100;-71
2022/08/17 12:42:59;;;;;;;20.20;3.42;;;38.50;82.90;;;;;;5055563;28;20025;-71
2022/08/17 12:45:35;;;;;;;29.80;4.38;;;38.60;81.60;;;;;;5055942;28;20039;-71
2022/08/17 12:48:13;;;;;;;24.75;3.90;;;38.60;80.10;;;;;;5056008;28;20025;-71
2022/08/17 12:50:44;;;;;;;22.23;3.80;;;38.40;79.90;;;;;;5055266;28;20036;-71
2022/08/17 12:53:20;;;;;;;27.25;3.72;;;38.30;80.10;;;;;;5054515;28;20049;-71
2022/08/17 12:55:48;;;;;;;26.15;3.78;;;38.30;81.90;;;;;;5055351;28;20032;-71
2022/08/17 12:58:23;;;;;;;19.40;3.50;;;38.20;81.00;;;;;;5054939;28;20508;-71
2022/08/17 13:01:01;;;;;;;20.58;3.38;;;38.30;81.10;;;;;;5054583;28;20027;-71
2022/08/17 13:03:37;;;;;;;20.00;3.45;;;38.30;81.20;;;;;;5054883;28;20094;-71
2022/08/17 13:06:08;;;;;;;26.55;3.63;;;38.30;83.00;;;;;;5054691;28;20021;-71
2022/08/17 13:08:46;;;;;;;20.15;4.20;;;38.20;81.00;;;;;;5054845;28;20032;-71
2022/08/17 13:11:16;;;;;;;26.30;3.70;;;38.30;82.10;;;;;;5054394;28;20438;-71
2022/08/17 13:13:50;;;;;;;22.50;3.15;;;38.40;81.70;;;;;;5052954;28;20170;-71
2022/08/17 13:16:20;;;;;;;29.92;3.70;;;38.40;82.20;;;;;;5054352;28;20029;-71
2022/08/17 13:18:47;;;;;;;22.38;3.92;;;38.50;80.30;;;;;;5055591;28;20032;-71
2022/08/17 13:21:22;;;;;;;24.35;3.40;;;38.70;78.80;;;;;;5055198;28;20017;-71
2022/08/17 13:24:03;;;;;;;19.08;3.03;;;38.90;79.60;;;;;;5055376;28;20025;-71
2022/08/17 13:26:41;;;;;;;20.92;3.83;;;38.90;80.50;;;;;;5055300;28;20400;-71
2022/08/17 13:29:26;;;;;;;21.60;3.72;;;38.90;80.10;;;;;;5055288;28;20024;-71
2022/08/17 13:31:54;;;;;;;;;;;39.00;79.10;;;;;;5055497;28;20163;-71
2022/08/17 13:34:23;;;;;;;22.10;3.65;;;39.00;76.90;;;;;;5054526;28;19991;-71
2022/08/17 13:36:51;;;;;;;24.98;3.83;;;38.90;77.50;;;;;;5054593;28;20215;-71
2022/08/17 13:39:23;;;;;;;24.38;4.15;;;39.00;75.80;;;;;;5054742;28;20044;-71
2022/08/17 13:41:52;;;;;;;19.58;3.42;;;38.80;75.60;;;;;;5054483;28;20025;-71
2022/08/17 13:44:37;;;;;;;25.58;3.92;;;38.70;75.20;;;;;;5054428;28;20506;-71
2022/08/17 13:47:16;;;;;;;27.10;4.28;;;38.60;75.00;;;;;;5055006;28;20446;-71